Latest Conditions
At L.F.Wade Int. Airport
Recorded at 2:55 pm
Mostly Cloudy
Temp.: 
26°C/79°F
Humidity: 
80%
Wind: 
S 5KT
or 6mph
Island Observations
Observations
Friday, October 31, 2014

Observations are in local time and taken at least once an hour, or upon the start and end of specified events such as showers and thunderstorms.

Time Sky / Weather Wind Speed/Gusts Temp. R.H. Pressure
     knots (mph)  °C (°F)  %  mb / "Hg
 14:55 Mostly Cloudy  S 5/0 (6/0) 26(79) 80 1011 / 29.85
 13:55 Partly Cloudy  SSE 6/0 (7/0) 26(79) 79 1007 / 29.75
 12:55 Mostly Cloudy  S 4/0 (5/0) 26(79) 77 1012 / 29.89
 11:55 Mostly Cloudy  SE 4/0 (5/0) 25(77) 78 1012 / 29.89
 10:55 Mostly Cloudy  WNW 6/0 (7/0) 24(75) 83 1013 / 29.90
 09:55 Mostly Cloudy  WSW 5/0 (6/0) 24(75) 89 1012 / 29.88
 09:03 Mostly Cloudy Showers SSE 5/0 (6/0) 23(73) 92 1012 / 29.87
 08:55 Mostly Cloudy Rain SSE 11/0 (13/0) 23(73) 92 1011 / 29.86
 07:55 Mostly Cloudy Rain S 10/0 (12/0) 23(74) 95 1011 / 29.86
 07:35 Mostly Cloudy Rain SSE 13/0 (15/0) 24(75) 95 1011 / 29.86
 06:55 Mostly Cloudy Thunderstorm S 13/0 (15/0) 24(75) 95 1012 / 29.88
 05:55 Mostly Cloudy Showers S 10/0 (12/0) 23(74) 92 1012 / 29.88
 05:28 Mostly Cloudy Showers S 15/0 (17/0) 23(74) 98 1012 / 29.87
 05:18 Mostly Cloudy  S 14/0 (16/0) 23(74) 98 1012 / 29.87
 04:55 Overcast Showers S 8/0 (9/0) 23(74) 98 1012 / 29.88
 04:27 Overcast Showers SSW 14/0 (16/0) 24(74) 92 1011 / 29.85
 03:55 Mostly Cloudy Showers S 8/0 (9/0) 24(74) 92 1013 / 29.90
 02:55 Mostly Cloudy  S 13/0 (15/0) 24(75) 87 1013 / 29.91
 01:55 Overcast  S 20/0 (23/0) 24(75) 86 1013 / 29.92
 00:55 Overcast  S 17/0 (20/0) 24(75) 91 1014 / 29.93
 23:55 Overcast  SSE 16/0 (18/0) 24(75) 90 1014 / 29.94
 22:55 Mostly Cloudy  SSE 14/0 (16/0) 24(75) 89 1014 / 29.95
 21:55 Mostly Cloudy  SSE 14/0 (16/0) 24(75) 90 1014 / 29.95
 20:55 Partly Cloudy  SSE 15/0 (17/0) 24(75) 89 1015 / 29.96
Observations from our AWOS sites are available here (password and username are both 'guest').